sensor_id;sensor_type;location;lat;lon;timestamp;P1;durP1;ratioP1;P2;durP2;ratioP2
14098;SDS011;7126;48.458;7.930;2024-03-22T00:01:49;0.43;;;0.43;;
14098;SDS011;7126;48.458;7.930;2024-03-22T00:04:16;0.43;;;0.43;;
14098;SDS011;7126;48.458;7.930;2024-03-22T00:06:42;0.47;;;0.47;;
14098;SDS011;7126;48.458;7.930;2024-03-22T00:09:08;0.40;;;0.40;;
14098;SDS011;7126;48.458;7.930;2024-03-22T00:11:34;0.50;;;0.50;;
14098;SDS011;7126;48.458;7.930;2024-03-22T00:14:00;0.38;;;0.38;;
14098;SDS011;7126;48.458;7.930;2024-03-22T00:16:26;0.40;;;0.40;;
14098;SDS011;7126;48.458;7.930;2024-03-22T00:18:52;0.40;;;0.40;;
14098;SDS011;7126;48.458;7.930;2024-03-22T00:21:17;0.45;;;0.45;;
14098;SDS011;7126;48.458;7.930;2024-03-22T00:23:43;0.40;;;0.40;;
14098;SDS011;7126;48.458;7.930;2024-03-22T00:26:09;0.50;;;0.50;;
14098;SDS011;7126;48.458;7.930;2024-03-22T00:28:35;0.55;;;0.55;;
14098;SDS011;7126;48.458;7.930;2024-03-22T00:31:00;0.40;;;0.40;;
14098;SDS011;7126;48.458;7.930;2024-03-22T00:33:26;0.32;;;0.32;;
14098;SDS011;7126;48.458;7.930;2024-03-22T00:35:51;0.40;;;0.40;;
14098;SDS011;7126;48.458;7.930;2024-03-22T00:38:17;0.40;;;0.40;;
14098;SDS011;7126;48.458;7.930;2024-03-22T00:40:42;0.40;;;0.40;;
14098;SDS011;7126;48.458;7.930;2024-03-22T00:43:08;0.40;;;0.40;;
14098;SDS011;7126;48.458;7.930;2024-03-22T00:45:34;0.40;;;0.40;;
14098;SDS011;7126;48.458;7.930;2024-03-22T00:47:59;0.40;;;0.40;;
14098;SDS011;7126;48.458;7.930;2024-03-22T00:50:25;0.40;;;0.40;;
14098;SDS011;7126;48.458;7.930;2024-03-22T00:52:50;0.50;;;0.50;;
14098;SDS011;7126;48.458;7.930;2024-03-22T00:55:21;0.50;;;0.50;;
14098;SDS011;7126;48.458;7.930;2024-03-22T00:57:47;0.40;;;0.40;;
14098;SDS011;7126;48.458;7.930;2024-03-22T01:00:12;0.50;;;0.50;;
14098;SDS011;7126;48.458;7.930;2024-03-22T01:02:39;0.32;;;0.32;;
14098;SDS011;7126;48.458;7.930;2024-03-22T01:05:05;0.40;;;0.40;;
14098;SDS011;7126;48.458;7.930;2024-03-22T01:07:30;0.40;;;0.40;;
14098;SDS011;7126;48.458;7.930;2024-03-22T01:09:56;0.45;;;0.45;;
14098;SDS011;7126;48.458;7.930;2024-03-22T01:12:21;0.55;;;0.55;;
14098;SDS011;7126;48.458;7.930;2024-03-22T01:14:47;0.38;;;0.38;;
14098;SDS011;7126;48.458;7.930;2024-03-22T01:17:12;0.50;;;0.50;;
14098;SDS011;7126;48.458;7.930;2024-03-22T01:19:38;0.30;;;0.30;;
14098;SDS011;7126;48.458;7.930;2024-03-22T01:22:03;0.38;;;0.38;;
14098;SDS011;7126;48.458;7.930;2024-03-22T01:24:29;0.40;;;0.40;;
14098;SDS011;7126;48.458;7.930;2024-03-22T01:26:54;0.60;;;0.60;;
14098;SDS011;7126;48.458;7.930;2024-03-22T01:29:20;0.40;;;0.40;;
14098;SDS011;7126;48.458;7.930;2024-03-22T01:31:46;0.40;;;0.40;;
14098;SDS011;7126;48.458;7.930;2024-03-22T01:34:12;0.35;;;0.35;;
14098;SDS011;7126;48.458;7.930;2024-03-22T01:36:38;0.50;;;0.50;;
14098;SDS011;7126;48.458;7.930;2024-03-22T01:39:04;0.40;;;0.40;;
14098;SDS011;7126;48.458;7.930;2024-03-22T01:41:29;0.40;;;0.40;;
14098;SDS011;7126;48.458;7.930;2024-03-22T01:43:55;0.40;;;0.40;;
14098;SDS011;7126;48.458;7.930;2024-03-22T01:46:20;0.50;;;0.50;;
14098;SDS011;7126;48.458;7.930;2024-03-22T01:48:46;0.50;;;0.50;;
14098;SDS011;7126;48.458;7.930;2024-03-22T01:51:11;0.35;;;0.35;;
14098;SDS011;7126;48.458;7.930;2024-03-22T01:53:37;0.30;;;0.30;;
14098;SDS011;7126;48.458;7.930;2024-03-22T01:56:03;0.40;;;0.40;;
14098;SDS011;7126;48.458;7.930;2024-03-22T01:58:28;0.40;;;0.40;;
14098;SDS011;7126;48.458;7.930;2024-03-22T02:00:54;0.47;;;0.47;;
14098;SDS011;7126;48.458;7.930;2024-03-22T02:03:19;0.35;;;0.35;;
14098;SDS011;7126;48.458;7.930;2024-03-22T02:05:45;0.55;;;0.55;;
14098;SDS011;7126;48.458;7.930;2024-03-22T02:08:11;0.35;;;0.35;;
14098;SDS011;7126;48.458;7.930;2024-03-22T02:10:36;0.30;;;0.30;;
14098;SDS011;7126;48.458;7.930;2024-03-22T02:13:02;0.50;;;0.50;;
14098;SDS011;7126;48.458;7.930;2024-03-22T02:15:27;0.40;;;0.40;;
14098;SDS011;7126;48.458;7.930;2024-03-22T02:17:53;2.55;;;1.33;;
14098;SDS011;7126;48.458;7.930;2024-03-22T02:20:18;0.40;;;0.40;;
14098;SDS011;7126;48.458;7.930;2024-03-22T02:22:44;0.30;;;0.30;;
14098;SDS011;7126;48.458;7.930;2024-03-22T02:25:09;0.30;;;0.30;;
14098;SDS011;7126;48.458;7.930;2024-03-22T02:27:35;0.40;;;0.40;;
14098;SDS011;7126;48.458;7.930;2024-03-22T02:30:01;0.30;;;0.30;;
14098;SDS011;7126;48.458;7.930;2024-03-22T02:32:27;0.30;;;0.30;;
14098;SDS011;7126;48.458;7.930;2024-03-22T02:34:53;0.40;;;0.40;;
14098;SDS011;7126;48.458;7.930;2024-03-22T02:37:18;0.40;;;0.40;;
14098;SDS011;7126;48.458;7.930;2024-03-22T02:39:44;0.40;;;0.40;;
14098;SDS011;7126;48.458;7.930;2024-03-22T02:42:09;0.30;;;0.30;;
14098;SDS011;7126;48.458;7.930;2024-03-22T02:44:34;0.30;;;0.30;;
14098;SDS011;7126;48.458;7.930;2024-03-22T02:47:03;0.30;;;0.30;;
14098;SDS011;7126;48.458;7.930;2024-03-22T02:49:29;0.38;;;0.38;;
14098;SDS011;7126;48.458;7.930;2024-03-22T02:51:54;0.35;;;0.35;;
14098;SDS011;7126;48.458;7.930;2024-03-22T02:54:20;0.30;;;0.30;;
14098;SDS011;7126;48.458;7.930;2024-03-22T02:56:45;0.40;;;0.40;;
14098;SDS011;7126;48.458;7.930;2024-03-22T02:59:11;0.40;;;0.40;;
14098;SDS011;7126;48.458;7.930;2024-03-22T03:01:36;0.40;;;0.40;;
14098;SDS011;7126;48.458;7.930;2024-03-22T03:04:02;0.30;;;0.30;;
14098;SDS011;7126;48.458;7.930;2024-03-22T03:06:27;0.40;;;0.40;;
14098;SDS011;7126;48.458;7.930;2024-03-22T03:08:53;0.30;;;0.30;;
14098;SDS011;7126;48.458;7.930;2024-03-22T03:11:18;0.40;;;0.40;;
14098;SDS011;7126;48.458;7.930;2024-03-22T03:13:44;0.40;;;0.40;;
14098;SDS011;7126;48.458;7.930;2024-03-22T03:16:09;0.35;;;0.35;;
14098;SDS011;7126;48.458;7.930;2024-03-22T03:18:35;0.38;;;0.38;;
14098;SDS011;7126;48.458;7.930;2024-03-22T03:21:00;0.40;;;0.40;;
14098;SDS011;7126;48.458;7.930;2024-03-22T03:23:26;0.30;;;0.30;;
14098;SDS011;7126;48.458;7.930;2024-03-22T03:25:51;0.35;;;0.35;;
14098;SDS011;7126;48.458;7.930;2024-03-22T03:28:17;0.40;;;0.40;;
14098;SDS011;7126;48.458;7.930;2024-03-22T03:30:43;0.40;;;0.40;;
14098;SDS011;7126;48.458;7.930;2024-03-22T03:33:08;0.52;;;0.52;;
14098;SDS011;7126;48.458;7.930;2024-03-22T03:35:34;0.40;;;0.40;;
14098;SDS011;7126;48.458;7.930;2024-03-22T03:38:00;0.40;;;0.40;;
14098;SDS011;7126;48.458;7.930;2024-03-22T03:40:25;0.40;;;0.40;;
14098;SDS011;7126;48.458;7.930;2024-03-22T03:42:52;0.40;;;0.40;;
14098;SDS011;7126;48.458;7.930;2024-03-22T03:45:18;0.60;;;0.60;;
14098;SDS011;7126;48.458;7.930;2024-03-22T03:47:44;0.30;;;0.30;;
14098;SDS011;7126;48.458;7.930;2024-03-22T03:50:09;0.40;;;0.40;;
14098;SDS011;7126;48.458;7.930;2024-03-22T03:52:35;0.38;;;0.38;;
14098;SDS011;7126;48.458;7.930;2024-03-22T03:55:00;0.30;;;0.30;;
14098;SDS011;7126;48.458;7.930;2024-03-22T03:57:26;0.40;;;0.40;;
14098;SDS011;7126;48.458;7.930;2024-03-22T03:59:51;0.40;;;0.40;;
14098;SDS011;7126;48.458;7.930;2024-03-22T04:02:17;0.50;;;0.50;;
14098;SDS011;7126;48.458;7.930;2024-03-22T04:04:42;0.40;;;0.40;;
14098;SDS011;7126;48.458;7.930;2024-03-22T04:07:08;0.30;;;0.30;;
14098;SDS011;7126;48.458;7.930;2024-03-22T04:09:33;0.40;;;0.40;;
14098;SDS011;7126;48.458;7.930;2024-03-22T04:11:59;0.30;;;0.30;;
14098;SDS011;7126;48.458;7.930;2024-03-22T04:14:25;0.30;;;0.30;;
14098;SDS011;7126;48.458;7.930;2024-03-22T04:16:51;0.40;;;0.40;;
14098;SDS011;7126;48.458;7.930;2024-03-22T04:19:19;0.50;;;0.50;;
14098;SDS011;7126;48.458;7.930;2024-03-22T04:21:45;0.30;;;0.30;;
14098;SDS011;7126;48.458;7.930;2024-03-22T04:24:10;0.28;;;0.28;;
14098;SDS011;7126;48.458;7.930;2024-03-22T04:26:36;0.30;;;0.30;;
14098;SDS011;7126;48.458;7.930;2024-03-22T04:29:01;0.40;;;0.40;;
14098;SDS011;7126;48.458;7.930;2024-03-22T04:31:27;0.30;;;0.30;;
14098;SDS011;7126;48.458;7.930;2024-03-22T04:33:52;0.40;;;0.40;;
14098;SDS011;7126;48.458;7.930;2024-03-22T04:36:18;0.40;;;0.40;;
14098;SDS011;7126;48.458;7.930;2024-03-22T04:38:43;0.40;;;0.40;;
14098;SDS011;7126;48.458;7.930;2024-03-22T04:41:09;0.65;;;0.65;;
14098;SDS011;7126;48.458;7.930;2024-03-22T04:43:34;0.60;;;0.60;;
14098;SDS011;7126;48.458;7.930;2024-03-22T04:46:00;0.30;;;0.30;;
14098;SDS011;7126;48.458;7.930;2024-03-22T04:48:25;0.40;;;0.40;;
14098;SDS011;7126;48.458;7.930;2024-03-22T04:50:51;0.50;;;0.50;;
14098;SDS011;7126;48.458;7.930;2024-03-22T04:53:18;0.30;;;0.30;;
14098;SDS011;7126;48.458;7.930;2024-03-22T04:55:45;0.40;;;0.40;;
14098;SDS011;7126;48.458;7.930;2024-03-22T04:58:14;0.57;;;0.57;;
14098;SDS011;7126;48.458;7.930;2024-03-22T05:00:41;0.40;;;0.40;;
14098;SDS011;7126;48.458;7.930;2024-03-22T05:03:07;0.60;;;0.60;;
14098;SDS011;7126;48.458;7.930;2024-03-22T05:05:33;0.40;;;0.40;;
14098;SDS011;7126;48.458;7.930;2024-03-22T05:07:59;0.63;;;0.63;;
14098;SDS011;7126;48.458;7.930;2024-03-22T05:10:25;0.40;;;0.40;;
14098;SDS011;7126;48.458;7.930;2024-03-22T05:12:50;0.40;;;0.40;;
14098;SDS011;7126;48.458;7.930;2024-03-22T05:15:16;0.30;;;0.30;;
14098;SDS011;7126;48.458;7.930;2024-03-22T05:17:42;0.30;;;0.30;;
14098;SDS011;7126;48.458;7.930;2024-03-22T05:20:08;0.30;;;0.30;;
14098;SDS011;7126;48.458;7.930;2024-03-22T05:22:36;0.40;;;0.40;;
14098;SDS011;7126;48.458;7.930;2024-03-22T05:25:02;0.40;;;0.40;;
14098;SDS011;7126;48.458;7.930;2024-03-22T05:27:28;0.30;;;0.30;;
14098;SDS011;7126;48.458;7.930;2024-03-22T05:29:55;0.40;;;0.40;;
14098;SDS011;7126;48.458;7.930;2024-03-22T05:32:21;0.40;;;0.40;;
14098;SDS011;7126;48.458;7.930;2024-03-22T05:34:46;0.40;;;0.40;;
14098;SDS011;7126;48.458;7.930;2024-03-22T05:37:12;0.47;;;0.47;;
14098;SDS011;7126;48.458;7.930;2024-03-22T05:39:37;0.40;;;0.40;;
14098;SDS011;7126;48.458;7.930;2024-03-22T05:42:04;0.40;;;0.40;;
14098;SDS011;7126;48.458;7.930;2024-03-22T05:44:30;0.30;;;0.30;;
14098;SDS011;7126;48.458;7.930;2024-03-22T05:46:55;0.30;;;0.30;;
14098;SDS011;7126;48.458;7.930;2024-03-22T05:49:21;0.30;;;0.30;;
14098;SDS011;7126;48.458;7.930;2024-03-22T05:51:46;0.40;;;0.40;;
14098;SDS011;7126;48.458;7.930;2024-03-22T05:54:12;1.30;;;1.20;;
14098;SDS011;7126;48.458;7.930;2024-03-22T05:56:37;0.30;;;0.30;;
14098;SDS011;7126;48.458;7.930;2024-03-22T05:59:03;0.30;;;0.30;;
14098;SDS011;7126;48.458;7.930;2024-03-22T06:01:28;1.70;;;0.60;;
14098;SDS011;7126;48.458;7.930;2024-03-22T06:03:54;0.40;;;0.40;;
14098;SDS011;7126;48.458;7.930;2024-03-22T06:06:19;0.32;;;0.32;;
14098;SDS011;7126;48.458;7.930;2024-03-22T06:08:49;0.50;;;0.50;;
14098;SDS011;7126;48.458;7.930;2024-03-22T06:11:17;0.40;;;0.40;;
14098;SDS011;7126;48.458;7.930;2024-03-22T06:13:43;0.40;;;0.40;;
14098;SDS011;7126;48.458;7.930;2024-03-22T06:16:09;0.40;;;0.40;;
14098;SDS011;7126;48.458;7.930;2024-03-22T06:18:34;0.50;;;0.50;;
14098;SDS011;7126;48.458;7.930;2024-03-22T06:21:00;0.40;;;0.40;;
14098;SDS011;7126;48.458;7.930;2024-03-22T06:23:25;0.30;;;0.30;;
14098;SDS011;7126;48.458;7.930;2024-03-22T06:25:51;0.60;;;0.60;;
14098;SDS011;7126;48.458;7.930;2024-03-22T06:28:17;0.32;;;0.32;;
14098;SDS011;7126;48.458;7.930;2024-03-22T06:30:43;0.40;;;0.40;;
14098;SDS011;7126;48.458;7.930;2024-03-22T06:33:08;0.40;;;0.40;;
14098;SDS011;7126;48.458;7.930;2024-03-22T06:35:34;0.85;;;0.85;;
14098;SDS011;7126;48.458;7.930;2024-03-22T06:37:59;0.50;;;0.50;;
14098;SDS011;7126;48.458;7.930;2024-03-22T06:40:27;0.30;;;0.30;;
14098;SDS011;7126;48.458;7.930;2024-03-22T06:42:53;0.40;;;0.40;;
14098;SDS011;7126;48.458;7.930;2024-03-22T06:45:19;0.30;;;0.30;;
14098;SDS011;7126;48.458;7.930;2024-03-22T06:47:44;0.30;;;0.30;;
14098;SDS011;7126;48.458;7.930;2024-03-22T06:50:10;0.43;;;0.43;;
14098;SDS011;7126;48.458;7.930;2024-03-22T06:52:36;0.40;;;0.40;;
14098;SDS011;7126;48.458;7.930;2024-03-22T06:55:02;0.50;;;0.50;;
14098;SDS011;7126;48.458;7.930;2024-03-22T06:57:28;0.40;;;0.40;;
14098;SDS011;7126;48.458;7.930;2024-03-22T06:59:54;0.50;;;0.50;;
14098;SDS011;7126;48.458;7.930;2024-03-22T07:02:19;0.60;;;0.60;;
14098;SDS011;7126;48.458;7.930;2024-03-22T07:04:45;0.32;;;0.32;;
14098;SDS011;7126;48.458;7.930;2024-03-22T07:07:11;0.88;;;0.88;;
14098;SDS011;7126;48.458;7.930;2024-03-22T07:09:36;0.47;;;0.47;;
14098;SDS011;7126;48.458;7.930;2024-03-22T07:12:02;0.40;;;0.40;;
14098;SDS011;7126;48.458;7.930;2024-03-22T07:14:28;0.30;;;0.30;;
14098;SDS011;7126;48.458;7.930;2024-03-22T07:16:54;0.30;;;0.30;;
14098;SDS011;7126;48.458;7.930;2024-03-22T07:19:20;0.40;;;0.40;;
14098;SDS011;7126;48.458;7.930;2024-03-22T07:21:46;0.50;;;0.50;;
14098;SDS011;7126;48.458;7.930;2024-03-22T07:24:12;0.30;;;0.30;;
14098;SDS011;7126;48.458;7.930;2024-03-22T07:26:37;0.40;;;0.40;;
14098;SDS011;7126;48.458;7.930;2024-03-22T07:29:03;0.40;;;0.40;;
14098;SDS011;7126;48.458;7.930;2024-03-22T07:31:29;0.30;;;0.30;;
14098;SDS011;7126;48.458;7.930;2024-03-22T07:33:54;0.30;;;0.30;;
14098;SDS011;7126;48.458;7.930;2024-03-22T07:36:20;0.40;;;0.40;;
14098;SDS011;7126;48.458;7.930;2024-03-22T07:38:46;0.40;;;0.40;;
14098;SDS011;7126;48.458;7.930;2024-03-22T07:41:13;0.40;;;0.40;;
14098;SDS011;7126;48.458;7.930;2024-03-22T07:43:39;0.40;;;0.40;;
14098;SDS011;7126;48.458;7.930;2024-03-22T07:46:05;0.40;;;0.40;;
14098;SDS011;7126;48.458;7.930;2024-03-22T07:48:30;0.32;;;0.32;;
14098;SDS011;7126;48.458;7.930;2024-03-22T07:50:57;0.40;;;0.40;;
14098;SDS011;7126;48.458;7.930;2024-03-22T07:53:23;0.43;;;0.43;;
14098;SDS011;7126;48.458;7.930;2024-03-22T07:55:49;0.40;;;0.40;;
14098;SDS011;7126;48.458;7.930;2024-03-22T07:58:14;0.40;;;0.40;;
14098;SDS011;7126;48.458;7.930;2024-03-22T08:00:40;0.43;;;0.43;;
14098;SDS011;7126;48.458;7.930;2024-03-22T08:03:05;0.50;;;0.50;;
14098;SDS011;7126;48.458;7.930;2024-03-22T08:05:31;0.60;;;0.60;;
14098;SDS011;7126;48.458;7.930;2024-03-22T08:07:57;0.30;;;0.30;;
14098;SDS011;7126;48.458;7.930;2024-03-22T08:10:22;0.50;;;0.50;;
14098;SDS011;7126;48.458;7.930;2024-03-22T08:12:48;0.50;;;0.50;;
14098;SDS011;7126;48.458;7.930;2024-03-22T08:15:14;0.30;;;0.30;;
14098;SDS011;7126;48.458;7.930;2024-03-22T08:17:40;0.40;;;0.40;;
14098;SDS011;7126;48.458;7.930;2024-03-22T08:20:06;0.77;;;0.77;;
14098;SDS011;7126;48.458;7.930;2024-03-22T08:22:31;0.40;;;0.40;;
14098;SDS011;7126;48.458;7.930;2024-03-22T08:24:57;0.47;;;0.47;;
14098;SDS011;7126;48.458;7.930;2024-03-22T08:27:22;0.40;;;0.40;;
14098;SDS011;7126;48.458;7.930;2024-03-22T08:29:49;0.50;;;0.50;;
14098;SDS011;7126;48.458;7.930;2024-03-22T08:32:15;0.40;;;0.40;;
14098;SDS011;7126;48.458;7.930;2024-03-22T08:34:40;0.40;;;0.40;;
14098;SDS011;7126;48.458;7.930;2024-03-22T08:37:06;0.40;;;0.40;;
14098;SDS011;7126;48.458;7.930;2024-03-22T08:39:32;0.50;;;0.50;;
14098;SDS011;7126;48.458;7.930;2024-03-22T08:41:58;0.40;;;0.40;;
14098;SDS011;7126;48.458;7.930;2024-03-22T08:44:23;0.40;;;0.40;;
14098;SDS011;7126;48.458;7.930;2024-03-22T08:46:49;0.60;;;0.60;;
14098;SDS011;7126;48.458;7.930;2024-03-22T08:49:14;0.40;;;0.40;;
14098;SDS011;7126;48.458;7.930;2024-03-22T08:51:40;0.40;;;0.40;;
14098;SDS011;7126;48.458;7.930;2024-03-22T08:54:06;0.50;;;0.50;;
14098;SDS011;7126;48.458;7.930;2024-03-22T08:56:31;0.50;;;0.50;;
14098;SDS011;7126;48.458;7.930;2024-03-22T08:58:57;0.50;;;0.50;;
14098;SDS011;7126;48.458;7.930;2024-03-22T09:01:24;0.70;;;0.70;;
14098;SDS011;7126;48.458;7.930;2024-03-22T09:03:49;0.40;;;0.40;;
14098;SDS011;7126;48.458;7.930;2024-03-22T09:06:16;0.40;;;0.40;;
14098;SDS011;7126;48.458;7.930;2024-03-22T09:08:41;0.40;;;0.40;;
14098;SDS011;7126;48.458;7.930;2024-03-22T09:11:07;0.47;;;0.47;;
14098;SDS011;7126;48.458;7.930;2024-03-22T09:13:32;0.40;;;0.40;;
14098;SDS011;7126;48.458;7.930;2024-03-22T09:16:00;0.55;;;0.55;;
14098;SDS011;7126;48.458;7.930;2024-03-22T09:18:26;0.60;;;0.60;;
14098;SDS011;7126;48.458;7.930;2024-03-22T09:20:52;0.40;;;0.40;;
14098;SDS011;7126;48.458;7.930;2024-03-22T09:23:18;0.50;;;0.50;;
14098;SDS011;7126;48.458;7.930;2024-03-22T09:25:44;0.50;;;0.50;;
14098;SDS011;7126;48.458;7.930;2024-03-22T09:28:11;0.50;;;0.50;;
14098;SDS011;7126;48.458;7.930;2024-03-22T09:30:39;0.57;;;0.57;;
14098;SDS011;7126;48.458;7.930;2024-03-22T09:33:06;0.50;;;0.50;;
14098;SDS011;7126;48.458;7.930;2024-03-22T09:35:34;0.57;;;0.57;;
14098;SDS011;7126;48.458;7.930;2024-03-22T09:38:00;0.55;;;0.55;;
14098;SDS011;7126;48.458;7.930;2024-03-22T09:40:26;0.50;;;0.50;;
14098;SDS011;7126;48.458;7.930;2024-03-22T09:42:52;0.60;;;0.60;;
14098;SDS011;7126;48.458;7.930;2024-03-22T09:45:19;0.50;;;0.50;;
14098;SDS011;7126;48.458;7.930;2024-03-22T09:47:45;0.43;;;0.43;;
14098;SDS011;7126;48.458;7.930;2024-03-22T09:50:13;0.57;;;0.57;;
14098;SDS011;7126;48.458;7.930;2024-03-22T09:52:39;0.50;;;0.50;;
14098;SDS011;7126;48.458;7.930;2024-03-22T09:55:07;0.50;;;0.50;;
14098;SDS011;7126;48.458;7.930;2024-03-22T09:57:37;0.43;;;0.43;;
14098;SDS011;7126;48.458;7.930;2024-03-22T10:00:05;0.45;;;0.45;;
14098;SDS011;7126;48.458;7.930;2024-03-22T10:02:32;0.50;;;0.50;;
14098;SDS011;7126;48.458;7.930;2024-03-22T10:04:59;0.50;;;0.50;;
14098;SDS011;7126;48.458;7.930;2024-03-22T10:07:25;0.60;;;0.60;;
14098;SDS011;7126;48.458;7.930;2024-03-22T10:09:53;0.60;;;0.60;;
14098;SDS011;7126;48.458;7.930;2024-03-22T10:12:23;0.50;;;0.50;;
14098;SDS011;7126;48.458;7.930;2024-03-22T10:14:50;0.40;;;0.40;;
14098;SDS011;7126;48.458;7.930;2024-03-22T10:17:17;0.40;;;0.40;;
14098;SDS011;7126;48.458;7.930;2024-03-22T10:19:43;0.40;;;0.40;;
14098;SDS011;7126;48.458;7.930;2024-03-22T10:22:08;0.43;;;0.43;;
14098;SDS011;7126;48.458;7.930;2024-03-22T10:24:34;0.43;;;0.43;;
14098;SDS011;7126;48.458;7.930;2024-03-22T10:27:00;0.40;;;0.40;;
14098;SDS011;7126;48.458;7.930;2024-03-22T10:29:26;0.50;;;0.50;;
14098;SDS011;7126;48.458;7.930;2024-03-22T10:31:52;0.50;;;0.50;;
14098;SDS011;7126;48.458;7.930;2024-03-22T10:34:19;0.50;;;0.50;;
14098;SDS011;7126;48.458;7.930;2024-03-22T10:36:46;0.50;;;0.50;;
14098;SDS011;7126;48.458;7.930;2024-03-22T10:39:13;0.52;;;0.52;;
14098;SDS011;7126;48.458;7.930;2024-03-22T10:41:41;0.50;;;0.50;;
14098;SDS011;7126;48.458;7.930;2024-03-22T10:44:07;0.50;;;0.50;;
14098;SDS011;7126;48.458;7.930;2024-03-22T10:46:33;0.40;;;0.40;;
14098;SDS011;7126;48.458;7.930;2024-03-22T10:49:00;0.43;;;0.43;;
14098;SDS011;7126;48.458;7.930;2024-03-22T10:51:30;0.63;;;0.63;;
14098;SDS011;7126;48.458;7.930;2024-03-22T10:53:58;0.60;;;0.60;;
14098;SDS011;7126;48.458;7.930;2024-03-22T10:56:25;0.45;;;0.45;;
14098;SDS011;7126;48.458;7.930;2024-03-22T10:58:52;0.45;;;0.45;;
14098;SDS011;7126;48.458;7.930;2024-03-22T11:01:25;0.45;;;0.45;;
14098;SDS011;7126;48.458;7.930;2024-03-22T11:03:51;0.50;;;0.50;;
14098;SDS011;7126;48.458;7.930;2024-03-22T11:06:28;0.50;;;0.50;;
14098;SDS011;7126;48.458;7.930;2024-03-22T11:08:55;0.50;;;0.50;;
14098;SDS011;7126;48.458;7.930;2024-03-22T11:11:25;0.55;;;0.55;;
14098;SDS011;7126;48.458;7.930;2024-03-22T11:13:54;0.70;;;0.70;;
14098;SDS011;7126;48.458;7.930;2024-03-22T11:16:21;0.60;;;0.60;;
14098;SDS011;7126;48.458;7.930;2024-03-22T11:18:46;0.70;;;0.70;;
14098;SDS011;7126;48.458;7.930;2024-03-22T11:21:13;0.95;;;0.95;;
14098;SDS011;7126;48.458;7.930;2024-03-22T11:23:39;0.70;;;0.70;;
14098;SDS011;7126;48.458;7.930;2024-03-22T11:26:05;0.70;;;0.70;;
14098;SDS011;7126;48.458;7.930;2024-03-22T11:28:32;0.80;;;0.80;;
14098;SDS011;7126;48.458;7.930;2024-03-22T11:30:58;0.70;;;0.70;;
14098;SDS011;7126;48.458;7.930;2024-03-22T11:33:24;0.82;;;0.82;;
14098;SDS011;7126;48.458;7.930;2024-03-22T11:35:52;0.70;;;0.70;;
14098;SDS011;7126;48.458;7.930;2024-03-22T11:38:17;0.70;;;0.70;;
14098;SDS011;7126;48.458;7.930;2024-03-22T11:40:43;0.60;;;0.60;;
14098;SDS011;7126;48.458;7.930;2024-03-22T11:43:10;0.70;;;0.70;;
14098;SDS011;7126;48.458;7.930;2024-03-22T11:45:36;0.63;;;0.63;;
14098;SDS011;7126;48.458;7.930;2024-03-22T11:48:02;0.90;;;0.90;;
14098;SDS011;7126;48.458;7.930;2024-03-22T11:50:28;0.73;;;0.73;;
14098;SDS011;7126;48.458;7.930;2024-03-22T11:52:54;0.88;;;0.88;;
14098;SDS011;7126;48.458;7.930;2024-03-22T11:55:20;1.05;;;1.05;;
14098;SDS011;7126;48.458;7.930;2024-03-22T11:57:49;0.82;;;0.82;;
14098;SDS011;7126;48.458;7.930;2024-03-22T12:00:15;1.05;;;1.05;;
14098;SDS011;7126;48.458;7.930;2024-03-22T12:02:42;1.05;;;1.05;;
14098;SDS011;7126;48.458;7.930;2024-03-22T12:05:08;0.90;;;0.90;;
14098;SDS011;7126;48.458;7.930;2024-03-22T12:07:35;1.17;;;1.17;;
14098;SDS011;7126;48.458;7.930;2024-03-22T12:10:01;0.95;;;0.95;;
14098;SDS011;7126;48.458;7.930;2024-03-22T12:12:26;0.90;;;0.90;;
14098;SDS011;7126;48.458;7.930;2024-03-22T12:14:52;0.88;;;0.88;;
14098;SDS011;7126;48.458;7.930;2024-03-22T12:17:18;0.88;;;0.88;;
14098;SDS011;7126;48.458;7.930;2024-03-22T12:19:43;0.88;;;0.88;;
14098;SDS011;7126;48.458;7.930;2024-03-22T12:22:09;0.90;;;0.90;;
14098;SDS011;7126;48.458;7.930;2024-03-22T12:24:35;0.73;;;0.73;;
14098;SDS011;7126;48.458;7.930;2024-03-22T12:27:01;0.63;;;0.63;;
14098;SDS011;7126;48.458;7.930;2024-03-22T12:29:27;0.90;;;0.90;;
14098;SDS011;7126;48.458;7.930;2024-03-22T12:31:52;0.80;;;0.80;;
14098;SDS011;7126;48.458;7.930;2024-03-22T12:34:18;0.73;;;0.73;;
14098;SDS011;7126;48.458;7.930;2024-03-22T12:36:43;0.80;;;0.80;;
14098;SDS011;7126;48.458;7.930;2024-03-22T12:39:09;0.80;;;0.80;;
14098;SDS011;7126;48.458;7.930;2024-03-22T12:41:34;0.77;;;0.77;;
14098;SDS011;7126;48.458;7.930;2024-03-22T12:44:00;0.60;;;0.60;;
14098;SDS011;7126;48.458;7.930;2024-03-22T12:46:26;0.70;;;0.70;;
14098;SDS011;7126;48.458;7.930;2024-03-22T12:48:52;0.80;;;0.80;;
14098;SDS011;7126;48.458;7.930;2024-03-22T12:51:19;0.65;;;0.65;;
14098;SDS011;7126;48.458;7.930;2024-03-22T12:53:44;0.70;;;0.70;;
14098;SDS011;7126;48.458;7.930;2024-03-22T12:56:10;0.85;;;0.85;;
14098;SDS011;7126;48.458;7.930;2024-03-22T12:58:36;0.60;;;0.60;;
14098;SDS011;7126;48.458;7.930;2024-03-22T13:01:02;0.50;;;0.50;;
14098;SDS011;7126;48.458;7.930;2024-03-22T13:03:28;0.70;;;0.70;;
14098;SDS011;7126;48.458;7.930;2024-03-22T13:05:54;0.77;;;0.77;;
14098;SDS011;7126;48.458;7.930;2024-03-22T13:08:19;0.70;;;0.70;;
14098;SDS011;7126;48.458;7.930;2024-03-22T13:10:45;0.80;;;0.80;;
14098;SDS011;7126;48.458;7.930;2024-03-22T13:13:12;0.90;;;0.90;;
14098;SDS011;7126;48.458;7.930;2024-03-22T13:15:40;0.73;;;0.73;;
14098;SDS011;7126;48.458;7.930;2024-03-22T13:18:05;0.80;;;0.80;;
14098;SDS011;7126;48.458;7.930;2024-03-22T13:20:32;0.80;;;0.80;;
14098;SDS011;7126;48.458;7.930;2024-03-22T13:22:59;0.80;;;0.80;;
14098;SDS011;7126;48.458;7.930;2024-03-22T13:25:26;0.80;;;0.80;;
14098;SDS011;7126;48.458;7.930;2024-03-22T13:27:51;0.80;;;0.80;;
14098;SDS011;7126;48.458;7.930;2024-03-22T13:30:17;0.80;;;0.80;;
14098;SDS011;7126;48.458;7.930;2024-03-22T13:32:42;0.80;;;0.80;;
14098;SDS011;7126;48.458;7.930;2024-03-22T13:35:08;0.90;;;0.90;;
14098;SDS011;7126;48.458;7.930;2024-03-22T13:37:33;0.80;;;0.80;;
14098;SDS011;7126;48.458;7.930;2024-03-22T13:39:59;0.70;;;0.70;;
14098;SDS011;7126;48.458;7.930;2024-03-22T13:42:25;0.70;;;0.70;;
14098;SDS011;7126;48.458;7.930;2024-03-22T13:44:51;0.80;;;0.80;;
14098;SDS011;7126;48.458;7.930;2024-03-22T13:47:17;0.88;;;0.88;;
14098;SDS011;7126;48.458;7.930;2024-03-22T13:49:43;0.80;;;0.80;;
14098;SDS011;7126;48.458;7.930;2024-03-22T13:52:09;0.85;;;0.85;;
14098;SDS011;7126;48.458;7.930;2024-03-22T13:54:35;0.80;;;0.80;;
14098;SDS011;7126;48.458;7.930;2024-03-22T13:57:01;0.80;;;0.80;;
14098;SDS011;7126;48.458;7.930;2024-03-22T13:59:28;0.80;;;0.80;;
14098;SDS011;7126;48.458;7.930;2024-03-22T14:01:54;0.70;;;0.70;;
14098;SDS011;7126;48.458;7.930;2024-03-22T14:04:19;0.90;;;0.90;;
14098;SDS011;7126;48.458;7.930;2024-03-22T14:06:45;0.80;;;0.80;;
14098;SDS011;7126;48.458;7.930;2024-03-22T14:09:11;0.90;;;0.90;;
14098;SDS011;7126;48.458;7.930;2024-03-22T14:11:38;0.75;;;0.75;;
14098;SDS011;7126;48.458;7.930;2024-03-22T14:14:04;0.70;;;0.70;;
14098;SDS011;7126;48.458;7.930;2024-03-22T14:16:30;0.80;;;0.80;;
14098;SDS011;7126;48.458;7.930;2024-03-22T14:18:56;0.80;;;0.80;;
14098;SDS011;7126;48.458;7.930;2024-03-22T14:21:21;0.73;;;0.73;;
14098;SDS011;7126;48.458;7.930;2024-03-22T14:23:48;0.80;;;0.80;;
14098;SDS011;7126;48.458;7.930;2024-03-22T14:26:14;0.60;;;0.60;;
14098;SDS011;7126;48.458;7.930;2024-03-22T14:28:40;0.77;;;0.77;;
14098;SDS011;7126;48.458;7.930;2024-03-22T14:31:07;0.75;;;0.75;;
14098;SDS011;7126;48.458;7.930;2024-03-22T14:33:39;0.70;;;0.70;;
14098;SDS011;7126;48.458;7.930;2024-03-22T14:36:05;0.68;;;0.68;;
14098;SDS011;7126;48.458;7.930;2024-03-22T14:38:32;0.60;;;0.60;;
14098;SDS011;7126;48.458;7.930;2024-03-22T14:40:58;0.60;;;0.60;;
14098;SDS011;7126;48.458;7.930;2024-03-22T14:43:24;0.98;;;0.98;;
14098;SDS011;7126;48.458;7.930;2024-03-22T14:45:51;0.70;;;0.70;;
14098;SDS011;7126;48.458;7.930;2024-03-22T14:48:20;0.70;;;0.70;;
14098;SDS011;7126;48.458;7.930;2024-03-22T14:50:46;0.70;;;0.70;;
14098;SDS011;7126;48.458;7.930;2024-03-22T14:53:13;0.77;;;0.77;;